CheckWX is a tool to help pilots better visualize weather data.  It is not intended as a substitute for an official pre-flight weather briefing.

17:54:33 UTC

54J METAR
Defuniak Springs Airport
Defuniak Springs, Florida, USA
Current

20 mins ago

K54J 171735Z AUTO 04003KT 10SM CLR 20/08 A3000 RMK AO2 T01960079
Observed
Oct-17 @ 17:35 UTC
Wind
  • 040° at 3 KTS
Visibility
10 SM
Flight Rules
VFR
Cloud Levels
  • Clear skies
Temperature
20°C / 68°F
Dewpoint
C / 46°F
Humidity
46%
Altimeter
30" Hg
Pressure
1015.92 hPa
Previous

40 mins ago

K54J 171715Z AUTO 36005KT 10SM CLR 19/08 A3001 RMK AO2 T01920076
Observed
Oct-17 @ 17:15 UTC
Wind
  • 360° at 5 KTS
Visibility
10 SM
Flight Rules
VFR
Cloud Levels
  • Clear skies
Temperature
19°C / 66°F
Dewpoint
C / 46°F
Humidity
49%
Altimeter
30.01" Hg
Pressure
1016.22 hPa
Previous

60 mins ago

K54J 171655Z AUTO 36008KT 10SM CLR 19/07 A3002 RMK AO2 T01850073
Observed
Oct-17 @ 16:55 UTC
Wind
  • 360° at 8 KTS
Visibility
10 SM
Flight Rules
VFR
Cloud Levels
  • Clear skies
Temperature
19°C / 66°F
Dewpoint
C / 45°F
Humidity
46%
Altimeter
30.02" Hg
Pressure
1016.62 hPa